sensor_id;sensor_type;location;lat;lon;timestamp;temperature;humidity
19389;DHT22;9830;41.876;23.474;2024-01-27T00:00:08;-3.60;99.90
19389;DHT22;9830;41.876;23.474;2024-01-27T00:02:35;-3.60;99.90
19389;DHT22;9830;41.876;23.474;2024-01-27T00:05:01;-3.60;99.90
19389;DHT22;9830;41.876;23.474;2024-01-27T00:07:26;-3.60;99.90
19389;DHT22;9830;41.876;23.474;2024-01-27T00:09:54;-3.60;99.90
19389;DHT22;9830;41.876;23.474;2024-01-27T00:12:19;-3.60;99.90
19389;DHT22;9830;41.876;23.474;2024-01-27T00:14:45;-3.60;99.90
19389;DHT22;9830;41.876;23.474;2024-01-27T00:17:11;-3.60;99.90
19389;DHT22;9830;41.876;23.474;2024-01-27T00:19:37;-3.60;99.90
19389;DHT22;9830;41.876;23.474;2024-01-27T00:22:02;-3.70;99.90
19389;DHT22;9830;41.876;23.474;2024-01-27T00:24:28;-3.70;99.90
19389;DHT22;9830;41.876;23.474;2024-01-27T00:26:54;-3.70;99.90
19389;DHT22;9830;41.876;23.474;2024-01-27T00:29:20;-3.70;99.90
19389;DHT22;9830;41.876;23.474;2024-01-27T00:31:46;-3.70;99.90
19389;DHT22;9830;41.876;23.474;2024-01-27T00:34:12;-3.70;99.90
19389;DHT22;9830;41.876;23.474;2024-01-27T00:36:37;-3.80;99.90
19389;DHT22;9830;41.876;23.474;2024-01-27T00:39:04;-3.90;99.90
19389;DHT22;9830;41.876;23.474;2024-01-27T00:41:30;-3.90;99.90
19389;DHT22;9830;41.876;23.474;2024-01-27T00:43:56;-4.00;99.90
19389;DHT22;9830;41.876;23.474;2024-01-27T00:46:21;-4.00;99.90
19389;DHT22;9830;41.876;23.474;2024-01-27T00:48:47;-4.00;99.90
19389;DHT22;9830;41.876;23.474;2024-01-27T00:51:13;-3.90;99.90
19389;DHT22;9830;41.876;23.474;2024-01-27T00:53:39;-3.90;99.90
19389;DHT22;9830;41.876;23.474;2024-01-27T00:56:06;-3.90;99.90
19389;DHT22;9830;41.876;23.474;2024-01-27T00:58:32;-3.90;99.90
19389;DHT22;9830;41.876;23.474;2024-01-27T01:00:59;-3.90;99.90
19389;DHT22;9830;41.876;23.474;2024-01-27T01:03:25;-3.90;99.90
19389;DHT22;9830;41.876;23.474;2024-01-27T01:05:50;-3.90;99.90
19389;DHT22;9830;41.876;23.474;2024-01-27T01:08:16;-3.90;99.90
19389;DHT22;9830;41.876;23.474;2024-01-27T01:10:43;-3.90;99.90
19389;DHT22;9830;41.876;23.474;2024-01-27T01:13:09;-3.90;99.90
19389;DHT22;9830;41.876;23.474;2024-01-27T01:15:35;-3.80;99.90
19389;DHT22;9830;41.876;23.474;2024-01-27T01:18:01;-3.90;99.90
19389;DHT22;9830;41.876;23.474;2024-01-27T01:20:27;-4.00;99.90
19389;DHT22;9830;41.876;23.474;2024-01-27T01:22:55;-4.00;99.90
19389;DHT22;9830;41.876;23.474;2024-01-27T01:25:21;-4.10;99.90
19389;DHT22;9830;41.876;23.474;2024-01-27T01:27:47;-4.10;99.90
19389;DHT22;9830;41.876;23.474;2024-01-27T01:30:15;-4.10;99.90
19389;DHT22;9830;41.876;23.474;2024-01-27T01:32:40;-4.10;99.90
19389;DHT22;9830;41.876;23.474;2024-01-27T01:35:06;-4.10;99.90
19389;DHT22;9830;41.876;23.474;2024-01-27T01:37:32;-4.10;99.90
19389;DHT22;9830;41.876;23.474;2024-01-27T01:39:57;-4.20;99.90
19389;DHT22;9830;41.876;23.474;2024-01-27T01:42:23;-4.20;99.90
19389;DHT22;9830;41.876;23.474;2024-01-27T01:44:51;-4.20;99.90
19389;DHT22;9830;41.876;23.474;2024-01-27T01:47:17;-4.20;99.90
19389;DHT22;9830;41.876;23.474;2024-01-27T01:49:42;-4.30;99.90
19389;DHT22;9830;41.876;23.474;2024-01-27T01:52:09;-4.30;99.90
19389;DHT22;9830;41.876;23.474;2024-01-27T01:54:35;-4.40;99.90
19389;DHT22;9830;41.876;23.474;2024-01-27T01:57:02;-4.40;99.90
19389;DHT22;9830;41.876;23.474;2024-01-27T01:59:28;-4.40;99.90
19389;DHT22;9830;41.876;23.474;2024-01-27T02:01:54;-4.40;99.90
19389;DHT22;9830;41.876;23.474;2024-01-27T02:04:20;-4.30;99.90
19389;DHT22;9830;41.876;23.474;2024-01-27T02:06:46;-4.30;99.90
19389;DHT22;9830;41.876;23.474;2024-01-27T02:09:12;-4.30;99.90
19389;DHT22;9830;41.876;23.474;2024-01-27T02:11:38;-4.40;99.90
19389;DHT22;9830;41.876;23.474;2024-01-27T02:14:04;-4.40;99.90
19389;DHT22;9830;41.876;23.474;2024-01-27T02:16:30;-4.50;99.90
19389;DHT22;9830;41.876;23.474;2024-01-27T02:18:55;-4.50;99.90
19389;DHT22;9830;41.876;23.474;2024-01-27T02:21:21;-4.50;99.90
19389;DHT22;9830;41.876;23.474;2024-01-27T02:23:47;-4.50;99.90
19389;DHT22;9830;41.876;23.474;2024-01-27T02:26:12;-4.60;99.90
19389;DHT22;9830;41.876;23.474;2024-01-27T02:28:39;-4.60;99.90
19389;DHT22;9830;41.876;23.474;2024-01-27T02:31:05;-4.60;99.90
19389;DHT22;9830;41.876;23.474;2024-01-27T02:33:31;-4.60;99.90
19389;DHT22;9830;41.876;23.474;2024-01-27T02:35:56;-4.60;99.90
19389;DHT22;9830;41.876;23.474;2024-01-27T02:38:22;-4.70;99.90
19389;DHT22;9830;41.876;23.474;2024-01-27T02:40:51;-4.70;99.90
19389;DHT22;9830;41.876;23.474;2024-01-27T02:43:18;-4.70;99.90
19389;DHT22;9830;41.876;23.474;2024-01-27T02:45:44;-4.70;99.90
19389;DHT22;9830;41.876;23.474;2024-01-27T02:48:11;-4.70;99.90
19389;DHT22;9830;41.876;23.474;2024-01-27T02:50:37;-4.60;99.90
19389;DHT22;9830;41.876;23.474;2024-01-27T02:53:02;-4.60;99.90
19389;DHT22;9830;41.876;23.474;2024-01-27T02:55:28;-4.60;99.90
19389;DHT22;9830;41.876;23.474;2024-01-27T02:57:54;-4.70;99.90
19389;DHT22;9830;41.876;23.474;2024-01-27T03:00:19;-4.60;99.90
19389;DHT22;9830;41.876;23.474;2024-01-27T03:02:45;-4.60;99.90
19389;DHT22;9830;41.876;23.474;2024-01-27T03:05:11;-4.50;99.90
19389;DHT22;9830;41.876;23.474;2024-01-27T03:07:39;-4.40;99.90
19389;DHT22;9830;41.876;23.474;2024-01-27T03:10:07;-4.40;99.90
19389;DHT22;9830;41.876;23.474;2024-01-27T03:12:33;-4.50;99.90
19389;DHT22;9830;41.876;23.474;2024-01-27T03:14:58;-4.40;99.90
19389;DHT22;9830;41.876;23.474;2024-01-27T03:17:24;-4.40;99.90
19389;DHT22;9830;41.876;23.474;2024-01-27T03:19:50;-4.50;99.90
19389;DHT22;9830;41.876;23.474;2024-01-27T03:22:17;-4.40;99.90
19389;DHT22;9830;41.876;23.474;2024-01-27T03:24:42;-4.50;99.90
19389;DHT22;9830;41.876;23.474;2024-01-27T03:27:08;-4.40;99.90
19389;DHT22;9830;41.876;23.474;2024-01-27T03:29:34;-4.50;99.90
19389;DHT22;9830;41.876;23.474;2024-01-27T03:31:59;-4.40;99.90
19389;DHT22;9830;41.876;23.474;2024-01-27T03:34:25;-4.40;99.90
19389;DHT22;9830;41.876;23.474;2024-01-27T03:36:52;-4.40;99.90
19389;DHT22;9830;41.876;23.474;2024-01-27T03:39:18;-4.40;99.90
19389;DHT22;9830;41.876;23.474;2024-01-27T03:41:44;-4.30;99.90
19389;DHT22;9830;41.876;23.474;2024-01-27T03:44:11;-4.30;99.90
19389;DHT22;9830;41.876;23.474;2024-01-27T03:46:36;-4.20;99.90
19389;DHT22;9830;41.876;23.474;2024-01-27T03:49:04;-4.20;99.90
19389;DHT22;9830;41.876;23.474;2024-01-27T03:51:30;-4.10;99.90
19389;DHT22;9830;41.876;23.474;2024-01-27T03:53:57;-4.10;99.90
19389;DHT22;9830;41.876;23.474;2024-01-27T03:56:22;-4.00;99.90
19389;DHT22;9830;41.876;23.474;2024-01-27T03:58:48;-4.00;99.90
19389;DHT22;9830;41.876;23.474;2024-01-27T04:01:15;-3.90;99.90
19389;DHT22;9830;41.876;23.474;2024-01-27T04:03:40;-3.90;99.90
19389;DHT22;9830;41.876;23.474;2024-01-27T04:06:06;-3.90;99.90
19389;DHT22;9830;41.876;23.474;2024-01-27T04:08:32;-3.80;99.90
19389;DHT22;9830;41.876;23.474;2024-01-27T04:10:57;-3.80;99.90
19389;DHT22;9830;41.876;23.474;2024-01-27T04:13:23;-3.90;99.90
19389;DHT22;9830;41.876;23.474;2024-01-27T04:15:49;-3.80;99.90
19389;DHT22;9830;41.876;23.474;2024-01-27T04:18:16;-3.80;99.90
19389;DHT22;9830;41.876;23.474;2024-01-27T04:20:42;-3.80;99.90
19389;DHT22;9830;41.876;23.474;2024-01-27T04:23:08;-3.80;99.90
19389;DHT22;9830;41.876;23.474;2024-01-27T04:25:33;-3.80;99.90
19389;DHT22;9830;41.876;23.474;2024-01-27T04:27:59;-3.80;99.90
19389;DHT22;9830;41.876;23.474;2024-01-27T04:30:25;-3.90;99.90
19389;DHT22;9830;41.876;23.474;2024-01-27T04:32:50;-3.90;99.90
19389;DHT22;9830;41.876;23.474;2024-01-27T04:35:17;-3.90;99.90
19389;DHT22;9830;41.876;23.474;2024-01-27T04:37:43;-3.90;99.90
19389;DHT22;9830;41.876;23.474;2024-01-27T04:40:11;-3.90;99.90
19389;DHT22;9830;41.876;23.474;2024-01-27T04:42:38;-3.80;99.90
19389;DHT22;9830;41.876;23.474;2024-01-27T04:45:05;-3.90;99.90
19389;DHT22;9830;41.876;23.474;2024-01-27T04:47:31;-3.90;99.90
19389;DHT22;9830;41.876;23.474;2024-01-27T04:49:57;-3.80;99.90
19389;DHT22;9830;41.876;23.474;2024-01-27T04:52:23;-3.90;99.90
19389;DHT22;9830;41.876;23.474;2024-01-27T04:54:50;-3.90;99.90
19389;DHT22;9830;41.876;23.474;2024-01-27T04:57:16;-3.90;99.90
19389;DHT22;9830;41.876;23.474;2024-01-27T04:59:42;-3.90;99.90
19389;DHT22;9830;41.876;23.474;2024-01-27T05:02:08;-3.80;99.90
19389;DHT22;9830;41.876;23.474;2024-01-27T05:04:34;-3.90;99.90
19389;DHT22;9830;41.876;23.474;2024-01-27T05:07:00;-3.90;99.90
19389;DHT22;9830;41.876;23.474;2024-01-27T05:09:26;-4.00;99.90
19389;DHT22;9830;41.876;23.474;2024-01-27T05:11:51;-4.00;99.90
19389;DHT22;9830;41.876;23.474;2024-01-27T05:14:19;-3.90;99.90
19389;DHT22;9830;41.876;23.474;2024-01-27T05:16:44;-3.90;99.90
19389;DHT22;9830;41.876;23.474;2024-01-27T05:19:10;-3.90;99.90
19389;DHT22;9830;41.876;23.474;2024-01-27T05:21:37;-3.90;99.90
19389;DHT22;9830;41.876;23.474;2024-01-27T05:24:06;-3.90;99.90
19389;DHT22;9830;41.876;23.474;2024-01-27T05:26:31;-3.90;99.90
19389;DHT22;9830;41.876;23.474;2024-01-27T05:28:57;-3.90;99.90
19389;DHT22;9830;41.876;23.474;2024-01-27T05:31:23;-3.80;99.90
19389;DHT22;9830;41.876;23.474;2024-01-27T05:33:52;-3.80;99.90
19389;DHT22;9830;41.876;23.474;2024-01-27T05:36:18;-3.70;99.90
19389;DHT22;9830;41.876;23.474;2024-01-27T05:38:44;-3.60;99.90
19389;DHT22;9830;41.876;23.474;2024-01-27T05:41:10;-3.40;99.90
19389;DHT22;9830;41.876;23.474;2024-01-27T05:43:36;-3.30;99.90
19389;DHT22;9830;41.876;23.474;2024-01-27T05:46:02;-3.30;99.90
19389;DHT22;9830;41.876;23.474;2024-01-27T05:48:28;-3.20;99.90
19389;DHT22;9830;41.876;23.474;2024-01-27T05:51:00;-3.20;99.90
19389;DHT22;9830;41.876;23.474;2024-01-27T05:53:27;-3.10;99.90
19389;DHT22;9830;41.876;23.474;2024-01-27T05:55:53;-2.90;99.90
19389;DHT22;9830;41.876;23.474;2024-01-27T05:58:27;-2.90;99.90
19389;DHT22;9830;41.876;23.474;2024-01-27T06:00:53;-2.90;99.90
19389;DHT22;9830;41.876;23.474;2024-01-27T06:03:19;-2.90;99.90
19389;DHT22;9830;41.876;23.474;2024-01-27T06:05:45;-2.80;99.90
19389;DHT22;9830;41.876;23.474;2024-01-27T06:08:11;-2.80;99.90
19389;DHT22;9830;41.876;23.474;2024-01-27T06:10:40;-2.60;99.90
19389;DHT22;9830;41.876;23.474;2024-01-27T06:13:06;-2.50;99.90
19389;DHT22;9830;41.876;23.474;2024-01-27T06:15:32;-2.60;99.90
19389;DHT22;9830;41.876;23.474;2024-01-27T06:17:57;-2.60;99.90
19389;DHT22;9830;41.876;23.474;2024-01-27T06:20:23;-2.60;99.90
19389;DHT22;9830;41.876;23.474;2024-01-27T06:22:49;-2.50;99.90
19389;DHT22;9830;41.876;23.474;2024-01-27T06:25:15;-2.50;99.90
19389;DHT22;9830;41.876;23.474;2024-01-27T06:27:42;-2.40;99.90
19389;DHT22;9830;41.876;23.474;2024-01-27T06:30:08;-2.30;99.90
19389;DHT22;9830;41.876;23.474;2024-01-27T06:32:36;-2.30;99.90
19389;DHT22;9830;41.876;23.474;2024-01-27T06:35:03;-2.30;99.90
19389;DHT22;9830;41.876;23.474;2024-01-27T06:37:29;-2.20;99.90
19389;DHT22;9830;41.876;23.474;2024-01-27T06:39:55;-2.20;99.90
19389;DHT22;9830;41.876;23.474;2024-01-27T06:42:21;-2.20;99.90
19389;DHT22;9830;41.876;23.474;2024-01-27T06:44:47;-2.10;99.90
19389;DHT22;9830;41.876;23.474;2024-01-27T06:47:13;-2.10;99.90
19389;DHT22;9830;41.876;23.474;2024-01-27T06:49:39;-2.10;99.90
19389;DHT22;9830;41.876;23.474;2024-01-27T06:52:05;-2.00;99.90
19389;DHT22;9830;41.876;23.474;2024-01-27T06:54:30;-2.00;99.90
19389;DHT22;9830;41.876;23.474;2024-01-27T06:57:00;-1.90;99.90
19389;DHT22;9830;41.876;23.474;2024-01-27T06:59:26;-1.70;99.90
19389;DHT22;9830;41.876;23.474;2024-01-27T07:01:52;-1.70;99.90
19389;DHT22;9830;41.876;23.474;2024-01-27T07:04:18;-1.70;99.90
19389;DHT22;9830;41.876;23.474;2024-01-27T07:06:45;-1.60;99.90
19389;DHT22;9830;41.876;23.474;2024-01-27T07:09:11;-1.60;99.90
19389;DHT22;9830;41.876;23.474;2024-01-27T07:11:37;-1.30;99.90
19389;DHT22;9830;41.876;23.474;2024-01-27T07:14:04;-1.40;99.90
19389;DHT22;9830;41.876;23.474;2024-01-27T07:16:32;-1.30;99.90
19389;DHT22;9830;41.876;23.474;2024-01-27T07:18:59;-1.40;99.90
19389;DHT22;9830;41.876;23.474;2024-01-27T07:21:25;-1.40;99.90
19389;DHT22;9830;41.876;23.474;2024-01-27T07:23:52;-1.30;99.90
19389;DHT22;9830;41.876;23.474;2024-01-27T07:26:19;-1.10;99.90
19389;DHT22;9830;41.876;23.474;2024-01-27T07:28:45;-0.90;99.90
19389;DHT22;9830;41.876;23.474;2024-01-27T07:31:11;-0.90;99.90
19389;DHT22;9830;41.876;23.474;2024-01-27T07:33:38;-0.80;99.90
19389;DHT22;9830;41.876;23.474;2024-01-27T07:36:04;-0.70;99.90
19389;DHT22;9830;41.876;23.474;2024-01-27T07:38:30;-0.60;99.90
19389;DHT22;9830;41.876;23.474;2024-01-27T07:40:55;-0.50;99.90
19389;DHT22;9830;41.876;23.474;2024-01-27T07:43:21;-0.40;99.90
19389;DHT22;9830;41.876;23.474;2024-01-27T07:45:47;-0.20;99.90
19389;DHT22;9830;41.876;23.474;2024-01-27T07:48:13;0.00;99.90
19389;DHT22;9830;41.876;23.474;2024-01-27T07:50:39;0.30;99.90
19389;DHT22;9830;41.876;23.474;2024-01-27T07:53:04;0.70;99.90
19389;DHT22;9830;41.876;23.474;2024-01-27T07:55:31;0.60;99.90
19389;DHT22;9830;41.876;23.474;2024-01-27T07:57:57;0.50;99.90
19389;DHT22;9830;41.876;23.474;2024-01-27T08:00:23;1.20;99.90
19389;DHT22;9830;41.876;23.474;2024-01-27T08:02:49;1.30;99.90
19389;DHT22;9830;41.876;23.474;2024-01-27T08:05:14;0.90;99.90
19389;DHT22;9830;41.876;23.474;2024-01-27T08:07:40;0.80;99.90
19389;DHT22;9830;41.876;23.474;2024-01-27T08:10:06;1.00;99.90
19389;DHT22;9830;41.876;23.474;2024-01-27T08:12:36;1.40;99.90
19389;DHT22;9830;41.876;23.474;2024-01-27T08:15:02;1.80;99.90
19389;DHT22;9830;41.876;23.474;2024-01-27T08:17:28;2.20;99.90
19389;DHT22;9830;41.876;23.474;2024-01-27T08:19:53;2.30;99.90
19389;DHT22;9830;41.876;23.474;2024-01-27T08:22:19;2.40;99.90
19389;DHT22;9830;41.876;23.474;2024-01-27T08:24:44;2.50;99.90
19389;DHT22;9830;41.876;23.474;2024-01-27T08:27:10;3.90;99.90
19389;DHT22;9830;41.876;23.474;2024-01-27T08:29:36;5.40;99.90
19389;DHT22;9830;41.876;23.474;2024-01-27T08:32:01;6.50;99.90
19389;DHT22;9830;41.876;23.474;2024-01-27T08:34:27;7.50;99.90
19389;DHT22;9830;41.876;23.474;2024-01-27T08:36:53;8.20;99.90
19389;DHT22;9830;41.876;23.474;2024-01-27T08:39:18;8.70;99.90
19389;DHT22;9830;41.876;23.474;2024-01-27T08:41:44;9.40;99.90
19389;DHT22;9830;41.876;23.474;2024-01-27T08:44:11;10.30;99.90
19389;DHT22;9830;41.876;23.474;2024-01-27T08:46:36;10.60;99.90
19389;DHT22;9830;41.876;23.474;2024-01-27T08:49:02;9.90;99.90
19389;DHT22;9830;41.876;23.474;2024-01-27T08:51:28;10.20;99.90
19389;DHT22;9830;41.876;23.474;2024-01-27T08:53:53;10.40;99.90
19389;DHT22;9830;41.876;23.474;2024-01-27T08:56:19;10.20;99.90
19389;DHT22;9830;41.876;23.474;2024-01-27T08:58:45;10.40;99.90
19389;DHT22;9830;41.876;23.474;2024-01-27T09:01:13;11.00;99.90
19389;DHT22;9830;41.876;23.474;2024-01-27T09:03:41;11.40;99.90
19389;DHT22;9830;41.876;23.474;2024-01-27T09:06:07;11.00;94.90
19389;DHT22;9830;41.876;23.474;2024-01-27T09:08:36;9.10;99.90
19389;DHT22;9830;41.876;23.474;2024-01-27T09:11:02;7.30;99.90
19389;DHT22;9830;41.876;23.474;2024-01-27T09:13:28;6.60;99.90
19389;DHT22;9830;41.876;23.474;2024-01-27T09:15:54;6.40;99.90
19389;DHT22;9830;41.876;23.474;2024-01-27T09:18:20;5.90;99.90
19389;DHT22;9830;41.876;23.474;2024-01-27T09:20:46;6.20;99.90
19389;DHT22;9830;41.876;23.474;2024-01-27T09:23:12;6.90;99.90
19389;DHT22;9830;41.876;23.474;2024-01-27T09:25:38;8.50;99.90
19389;DHT22;9830;41.876;23.474;2024-01-27T09:28:04;9.40;96.20
19389;DHT22;9830;41.876;23.474;2024-01-27T09:30:30;10.00;73.30
19389;DHT22;9830;41.876;23.474;2024-01-27T09:32:56;9.10;85.60
19389;DHT22;9830;41.876;23.474;2024-01-27T09:35:21;8.40;95.80
19389;DHT22;9830;41.876;23.474;2024-01-27T09:37:47;8.70;95.80
19389;DHT22;9830;41.876;23.474;2024-01-27T09:40:13;8.80;94.00
19389;DHT22;9830;41.876;23.474;2024-01-27T09:42:38;9.10;91.40
19389;DHT22;9830;41.876;23.474;2024-01-27T09:45:09;9.20;81.80
19389;DHT22;9830;41.876;23.474;2024-01-27T09:47:36;8.80;84.70
19389;DHT22;9830;41.876;23.474;2024-01-27T09:50:03;8.50;85.50
19389;DHT22;9830;41.876;23.474;2024-01-27T09:52:29;8.60;87.80
19389;DHT22;9830;41.876;23.474;2024-01-27T09:54:55;8.00;90.50
19389;DHT22;9830;41.876;23.474;2024-01-27T09:57:21;7.80;94.30
19389;DHT22;9830;41.876;23.474;2024-01-27T09:59:47;8.30;90.60
19389;DHT22;9830;41.876;23.474;2024-01-27T10:02:15;8.00;89.40
19389;DHT22;9830;41.876;23.474;2024-01-27T10:04:44;8.10;91.10
19389;DHT22;9830;41.876;23.474;2024-01-27T10:07:10;8.30;81.70
19389;DHT22;9830;41.876;23.474;2024-01-27T10:09:36;8.40;79.50
19389;DHT22;9830;41.876;23.474;2024-01-27T10:12:02;8.60;78.10
19389;DHT22;9830;41.876;23.474;2024-01-27T10:14:41;8.60;79.20
19389;DHT22;9830;41.876;23.474;2024-01-27T10:17:23;8.60;80.70
19389;DHT22;9830;41.876;23.474;2024-01-27T10:20:03;8.70;77.30
19389;DHT22;9830;41.876;23.474;2024-01-27T10:22:37;8.50;80.90
19389;DHT22;9830;41.876;23.474;2024-01-27T10:25:04;9.00;78.40
19389;DHT22;9830;41.876;23.474;2024-01-27T10:27:30;8.80;84.40
19389;DHT22;9830;41.876;23.474;2024-01-27T10:29:55;8.40;89.60
19389;DHT22;9830;41.876;23.474;2024-01-27T10:32:21;8.90;91.20
19389;DHT22;9830;41.876;23.474;2024-01-27T10:37:28;8.60;86.70
19389;DHT22;9830;41.876;23.474;2024-01-27T10:40:04;8.50;92.80
19389;DHT22;9830;41.876;23.474;2024-01-27T10:42:30;8.00;92.50
19389;DHT22;9830;41.876;23.474;2024-01-27T10:45:00;8.40;91.60
19389;DHT22;9830;41.876;23.474;2024-01-27T10:47:27;8.20;91.90
19389;DHT22;9830;41.876;23.474;2024-01-27T10:49:55;8.30;92.00
19389;DHT22;9830;41.876;23.474;2024-01-27T10:52:25;8.20;93.00
19389;DHT22;9830;41.876;23.474;2024-01-27T10:55:04;8.00;94.40
19389;DHT22;9830;41.876;23.474;2024-01-27T10:57:37;8.60;92.70
19389;DHT22;9830;41.876;23.474;2024-01-27T11:00:05;9.10;90.80
19389;DHT22;9830;41.876;23.474;2024-01-27T11:02:33;9.30;86.80
19389;DHT22;9830;41.876;23.474;2024-01-27T11:05:03;8.80;91.80
19389;DHT22;9830;41.876;23.474;2024-01-27T11:07:34;8.00;94.80
19389;DHT22;9830;41.876;23.474;2024-01-27T11:10:00;7.70;99.90
19389;DHT22;9830;41.876;23.474;2024-01-27T11:12:26;7.60;99.90
19389;DHT22;9830;41.876;23.474;2024-01-27T11:14:53;7.50;99.90
19389;DHT22;9830;41.876;23.474;2024-01-27T11:17:19;7.40;99.90
19389;DHT22;9830;41.876;23.474;2024-01-27T11:19:45;6.90;99.90
19389;DHT22;9830;41.876;23.474;2024-01-27T11:22:27;6.60;99.90
19389;DHT22;9830;41.876;23.474;2024-01-27T11:27:31;6.60;99.90
19389;DHT22;9830;41.876;23.474;2024-01-27T11:29:57;6.60;99.90
19389;DHT22;9830;41.876;23.474;2024-01-27T11:32:23;6.40;99.90
19389;DHT22;9830;41.876;23.474;2024-01-27T11:34:50;6.40;99.90
19389;DHT22;9830;41.876;23.474;2024-01-27T11:37:16;6.60;99.90
19389;DHT22;9830;41.876;23.474;2024-01-27T11:39:43;6.60;99.90
19389;DHT22;9830;41.876;23.474;2024-01-27T11:42:10;6.80;99.90
19389;DHT22;9830;41.876;23.474;2024-01-27T11:44:40;6.50;99.90
19389;DHT22;9830;41.876;23.474;2024-01-27T11:47:17;6.10;99.90
19389;DHT22;9830;41.876;23.474;2024-01-27T11:49:50;6.10;99.90
19389;DHT22;9830;41.876;23.474;2024-01-27T11:52:19;6.30;99.90
19389;DHT22;9830;41.876;23.474;2024-01-27T11:54:44;5.90;99.90
19389;DHT22;9830;41.876;23.474;2024-01-27T11:57:11;5.90;99.90
19389;DHT22;9830;41.876;23.474;2024-01-27T11:59:37;5.70;99.90
19389;DHT22;9830;41.876;23.474;2024-01-27T12:02:03;5.50;99.90
19389;DHT22;9830;41.876;23.474;2024-01-27T12:04:29;5.50;99.90
19389;DHT22;9830;41.876;23.474;2024-01-27T12:06:55;5.40;99.90
19389;DHT22;9830;41.876;23.474;2024-01-27T12:09:20;5.10;99.90
19389;DHT22;9830;41.876;23.474;2024-01-27T12:11:48;4.90;99.90
19389;DHT22;9830;41.876;23.474;2024-01-27T12:14:13;4.70;99.90
19389;DHT22;9830;41.876;23.474;2024-01-27T12:16:39;4.50;99.90
19389;DHT22;9830;41.876;23.474;2024-01-27T12:19:05;4.40;99.90
19389;DHT22;9830;41.876;23.474;2024-01-27T12:21:31;4.40;99.90
19389;DHT22;9830;41.876;23.474;2024-01-27T12:23:58;4.30;99.90
19389;DHT22;9830;41.876;23.474;2024-01-27T12:26:29;4.20;99.90
19389;DHT22;9830;41.876;23.474;2024-01-27T12:28:56;4.20;99.90
19389;DHT22;9830;41.876;23.474;2024-01-27T12:31:23;4.30;99.90
19389;DHT22;9830;41.876;23.474;2024-01-27T12:36:17;4.10;99.90
19389;DHT22;9830;41.876;23.474;2024-01-27T12:38:47;4.30;99.90
19389;DHT22;9830;41.876;23.474;2024-01-27T12:41:12;4.30;99.90
19389;DHT22;9830;41.876;23.474;2024-01-27T12:43:38;4.40;99.90
19389;DHT22;9830;41.876;23.474;2024-01-27T12:46:04;4.40;99.90
19389;DHT22;9830;41.876;23.474;2024-01-27T12:48:31;4.40;99.90
19389;DHT22;9830;41.876;23.474;2024-01-27T12:50:58;4.40;99.90
19389;DHT22;9830;41.876;23.474;2024-01-27T12:53:23;4.50;99.90
19389;DHT22;9830;41.876;23.474;2024-01-27T12:55:52;4.40;99.90
19389;DHT22;9830;41.876;23.474;2024-01-27T12:58:18;4.50;99.90
19389;DHT22;9830;41.876;23.474;2024-01-27T13:00:43;4.60;99.90
19389;DHT22;9830;41.876;23.474;2024-01-27T13:03:09;4.60;99.90
19389;DHT22;9830;41.876;23.474;2024-01-27T13:05:35;4.30;99.90
19389;DHT22;9830;41.876;23.474;2024-01-27T13:08:01;4.30;99.90
19389;DHT22;9830;41.876;23.474;2024-01-27T13:10:27;4.40;99.90
19389;DHT22;9830;41.876;23.474;2024-01-27T13:12:52;4.50;99.90
19389;DHT22;9830;41.876;23.474;2024-01-27T13:15:18;4.40;99.90
19389;DHT22;9830;41.876;23.474;2024-01-27T13:17:45;4.50;99.90
19389;DHT22;9830;41.876;23.474;2024-01-27T13:20:10;4.40;99.90
19389;DHT22;9830;41.876;23.474;2024-01-27T13:22:36;4.40;99.90
19389;DHT22;9830;41.876;23.474;2024-01-27T13:25:02;4.30;99.90
19389;DHT22;9830;41.876;23.474;2024-01-27T13:27:30;4.20;99.90
19389;DHT22;9830;41.876;23.474;2024-01-27T13:29:55;4.20;99.90
19389;DHT22;9830;41.876;23.474;2024-01-27T13:32:21;4.20;99.90
19389;DHT22;9830;41.876;23.474;2024-01-27T13:34:46;4.10;99.90
19389;DHT22;9830;41.876;23.474;2024-01-27T13:37:13;4.20;99.90
19389;DHT22;9830;41.876;23.474;2024-01-27T13:39:41;4.20;99.90
19389;DHT22;9830;41.876;23.474;2024-01-27T13:42:07;4.10;99.90
19389;DHT22;9830;41.876;23.474;2024-01-27T13:44:32;4.00;99.90
19389;DHT22;9830;41.876;23.474;2024-01-27T13:47:02;4.00;99.90
19389;DHT22;9830;41.876;23.474;2024-01-27T13:49:28;4.00;99.90
19389;DHT22;9830;41.876;23.474;2024-01-27T13:51:54;4.00;99.90
19389;DHT22;9830;41.876;23.474;2024-01-27T13:54:19;3.90;99.90
19389;DHT22;9830;41.876;23.474;2024-01-27T13:56:45;3.90;99.90
19389;DHT22;9830;41.876;23.474;2024-01-27T13:59:11;3.80;99.90
19389;DHT22;9830;41.876;23.474;2024-01-27T14:01:36;3.70;99.90
19389;DHT22;9830;41.876;23.474;2024-01-27T14:04:05;3.70;99.90
19389;DHT22;9830;41.876;23.474;2024-01-27T14:06:34;3.70;99.90
19389;DHT22;9830;41.876;23.474;2024-01-27T14:09:01;3.60;99.90
19389;DHT22;9830;41.876;23.474;2024-01-27T14:11:29;3.60;99.90
19389;DHT22;9830;41.876;23.474;2024-01-27T14:13:56;3.50;99.90
19389;DHT22;9830;41.876;23.474;2024-01-27T14:16:22;3.50;99.90
19389;DHT22;9830;41.876;23.474;2024-01-27T14:18:48;3.40;99.90
19389;DHT22;9830;41.876;23.474;2024-01-27T14:21:13;3.40;99.90
19389;DHT22;9830;41.876;23.474;2024-01-27T14:23:40;3.30;99.90
19389;DHT22;9830;41.876;23.474;2024-01-27T14:26:05;3.30;99.90
19389;DHT22;9830;41.876;23.474;2024-01-27T14:28:33;3.20;99.90
19389;DHT22;9830;41.876;23.474;2024-01-27T14:31:00;3.20;99.90
19389;DHT22;9830;41.876;23.474;2024-01-27T14:33:26;3.20;99.90
19389;DHT22;9830;41.876;23.474;2024-01-27T14:35:52;3.20;99.90
19389;DHT22;9830;41.876;23.474;2024-01-27T14:38:17;3.10;99.90
19389;DHT22;9830;41.876;23.474;2024-01-27T14:40:43;3.10;99.90
19389;DHT22;9830;41.876;23.474;2024-01-27T14:43:09;3.00;99.90
19389;DHT22;9830;41.876;23.474;2024-01-27T14:45:36;3.00;99.90
19389;DHT22;9830;41.876;23.474;2024-01-27T14:48:02;2.90;99.90
19389;DHT22;9830;41.876;23.474;2024-01-27T14:50:28;2.80;99.90
19389;DHT22;9830;41.876;23.474;2024-01-27T14:52:54;2.60;99.90
19389;DHT22;9830;41.876;23.474;2024-01-27T14:55:20;2.40;99.90
19389;DHT22;9830;41.876;23.474;2024-01-27T14:57:45;2.40;99.90
19389;DHT22;9830;41.876;23.474;2024-01-27T15:00:13;2.30;99.90
19389;DHT22;9830;41.876;23.474;2024-01-27T15:02:41;2.20;99.90
19389;DHT22;9830;41.876;23.474;2024-01-27T15:05:10;2.20;99.90
19389;DHT22;9830;41.876;23.474;2024-01-27T15:07:36;2.10;99.90
19389;DHT22;9830;41.876;23.474;2024-01-27T15:10:04;2.10;99.90
19389;DHT22;9830;41.876;23.474;2024-01-27T15:12:30;2.10;99.90
19389;DHT22;9830;41.876;23.474;2024-01-27T15:14:56;2.00;99.90
19389;DHT22;9830;41.876;23.474;2024-01-27T15:17:21;2.00;99.90
19389;DHT22;9830;41.876;23.474;2024-01-27T15:19:49;1.90;99.90
19389;DHT22;9830;41.876;23.474;2024-01-27T15:22:14;1.90;99.90
19389;DHT22;9830;41.876;23.474;2024-01-27T15:24:40;1.90;99.90
19389;DHT22;9830;41.876;23.474;2024-01-27T15:27:06;1.80;99.90
19389;DHT22;9830;41.876;23.474;2024-01-27T15:29:32;1.80;99.90
19389;DHT22;9830;41.876;23.474;2024-01-27T15:31:58;1.80;99.90
19389;DHT22;9830;41.876;23.474;2024-01-27T15:34:23;1.70;99.90
19389;DHT22;9830;41.876;23.474;2024-01-27T15:36:49;1.60;99.90
19389;DHT22;9830;41.876;23.474;2024-01-27T15:39:15;1.60;99.90